sensor_id;sensor_type;location;lat;lon;timestamp;P1;durP1;ratioP1;P2;durP2;ratioP2
52888;SDS011;41413;52.770;6.892;2022-12-18T00:02:12;96.22;;;53.33;;
52888;SDS011;41413;52.770;6.892;2022-12-18T00:04:38;91.35;;;54.60;;
52888;SDS011;41413;52.770;6.892;2022-12-18T00:07:05;102.80;;;53.65;;
52888;SDS011;41413;52.770;6.892;2022-12-18T00:09:32;93.00;;;50.35;;
52888;SDS011;41413;52.770;6.892;2022-12-18T00:12:05;96.90;;;53.78;;
52888;SDS011;41413;52.770;6.892;2022-12-18T00:14:43;103.63;;;52.17;;
52888;SDS011;41413;52.770;6.892;2022-12-18T00:17:10;89.70;;;47.63;;
52888;SDS011;41413;52.770;6.892;2022-12-18T00:19:37;83.38;;;48.83;;
52888;SDS011;41413;52.770;6.892;2022-12-18T00:22:04;86.75;;;47.03;;
52888;SDS011;41413;52.770;6.892;2022-12-18T00:24:32;80.15;;;45.92;;
52888;SDS011;41413;52.770;6.892;2022-12-18T00:26:58;77.20;;;47.40;;
52888;SDS011;41413;52.770;6.892;2022-12-18T00:29:25;87.32;;;46.28;;
52888;SDS011;41413;52.770;6.892;2022-12-18T00:31:52;76.38;;;46.15;;
52888;SDS011;41413;52.770;6.892;2022-12-18T00:34:18;88.43;;;49.80;;
52888;SDS011;41413;52.770;6.892;2022-12-18T00:36:46;89.38;;;49.95;;
52888;SDS011;41413;52.770;6.892;2022-12-18T00:39:13;83.88;;;50.35;;
52888;SDS011;41413;52.770;6.892;2022-12-18T00:41:40;74.90;;;46.13;;
52888;SDS011;41413;52.770;6.892;2022-12-18T00:44:25;75.88;;;42.88;;
52888;SDS011;41413;52.770;6.892;2022-12-18T00:46:52;86.07;;;45.47;;
52888;SDS011;41413;52.770;6.892;2022-12-18T00:49:19;82.20;;;45.58;;
52888;SDS011;41413;52.770;6.892;2022-12-18T00:51:46;72.95;;;46.58;;
52888;SDS011;41413;52.770;6.892;2022-12-18T00:54:14;77.38;;;39.22;;
52888;SDS011;41413;52.770;6.892;2022-12-18T00:56:41;76.90;;;42.70;;
52888;SDS011;41413;52.770;6.892;2022-12-18T00:59:15;79.88;;;42.25;;
52888;SDS011;41413;52.770;6.892;2022-12-18T01:01:42;69.22;;;40.78;;
52888;SDS011;41413;52.770;6.892;2022-12-18T01:04:10;81.63;;;45.28;;
52888;SDS011;41413;52.770;6.892;2022-12-18T01:06:36;75.13;;;44.72;;
52888;SDS011;41413;52.770;6.892;2022-12-18T01:09:03;79.07;;;44.95;;
52888;SDS011;41413;52.770;6.892;2022-12-18T01:11:30;70.60;;;42.95;;
52888;SDS011;41413;52.770;6.892;2022-12-18T01:14:00;86.60;;;47.40;;
52888;SDS011;41413;52.770;6.892;2022-12-18T01:16:27;81.57;;;41.63;;
52888;SDS011;41413;52.770;6.892;2022-12-18T01:18:54;73.38;;;44.90;;
52888;SDS011;41413;52.770;6.892;2022-12-18T01:21:21;86.78;;;47.47;;
52888;SDS011;41413;52.770;6.892;2022-12-18T01:23:53;97.55;;;50.50;;
52888;SDS011;41413;52.770;6.892;2022-12-18T01:26:20;99.20;;;48.63;;
52888;SDS011;41413;52.770;6.892;2022-12-18T01:28:47;99.32;;;53.22;;
52888;SDS011;41413;52.770;6.892;2022-12-18T01:33:43;127.30;;;56.75;;
52888;SDS011;41413;52.770;6.892;2022-12-18T01:36:23;95.90;;;53.03;;
52888;SDS011;41413;52.770;6.892;2022-12-18T01:39:03;102.85;;;51.33;;
52888;SDS011;41413;52.770;6.892;2022-12-18T01:41:32;88.22;;;48.63;;
52888;SDS011;41413;52.770;6.892;2022-12-18T01:47:18;101.78;;;52.15;;
52888;SDS011;41413;52.770;6.892;2022-12-18T01:52:35;83.85;;;47.20;;
52888;SDS011;41413;52.770;6.892;2022-12-18T01:55:03;80.55;;;46.78;;
52888;SDS011;41413;52.770;6.892;2022-12-18T01:57:32;83.00;;;42.33;;
52888;SDS011;41413;52.770;6.892;2022-12-18T02:00:00;73.20;;;42.72;;
52888;SDS011;41413;52.770;6.892;2022-12-18T02:02:30;77.50;;;41.80;;
52888;SDS011;41413;52.770;6.892;2022-12-18T02:04:57;66.43;;;38.05;;
52888;SDS011;41413;52.770;6.892;2022-12-18T02:27:53;63.40;;;33.58;;
52888;SDS011;41413;52.770;6.892;2022-12-18T02:30:24;57.92;;;33.20;;
52888;SDS011;41413;52.770;6.892;2022-12-18T02:32:52;49.60;;;33.70;;
52888;SDS011;41413;52.770;6.892;2022-12-18T02:35:21;54.88;;;31.30;;
52888;SDS011;41413;52.770;6.892;2022-12-18T02:37:54;62.15;;;31.60;;
52888;SDS011;41413;52.770;6.892;2022-12-18T02:40:22;54.15;;;30.88;;
52888;SDS011;41413;52.770;6.892;2022-12-18T02:42:50;51.45;;;33.85;;
52888;SDS011;41413;52.770;6.892;2022-12-18T02:45:19;58.42;;;35.22;;
52888;SDS011;41413;52.770;6.892;2022-12-18T02:47:47;46.60;;;28.60;;
52888;SDS011;41413;52.770;6.892;2022-12-18T02:50:22;50.47;;;30.92;;
52888;SDS011;41413;52.770;6.892;2022-12-18T02:58:06;50.40;;;29.50;;
52888;SDS011;41413;52.770;6.892;2022-12-18T03:00:48;49.00;;;31.15;;
52888;SDS011;41413;52.770;6.892;2022-12-18T03:03:24;58.15;;;32.80;;
52888;SDS011;41413;52.770;6.892;2022-12-18T03:06:23;45.83;;;29.48;;
52888;SDS011;41413;52.770;6.892;2022-12-18T03:08:57;58.35;;;31.48;;
52888;SDS011;41413;52.770;6.892;2022-12-18T03:11:28;54.67;;;32.60;;
52888;SDS011;41413;52.770;6.892;2022-12-18T03:14:17;49.25;;;32.55;;
52888;SDS011;41413;52.770;6.892;2022-12-18T03:16:48;47.97;;;30.27;;
52888;SDS011;41413;52.770;6.892;2022-12-18T03:19:18;53.53;;;29.67;;
52888;SDS011;41413;52.770;6.892;2022-12-18T03:21:51;48.95;;;29.67;;
52888;SDS011;41413;52.770;6.892;2022-12-18T03:24:21;48.50;;;31.48;;
52888;SDS011;41413;52.770;6.892;2022-12-18T03:26:51;53.65;;;30.67;;
52888;SDS011;41413;52.770;6.892;2022-12-18T03:29:27;46.78;;;28.48;;
52888;SDS011;41413;52.770;6.892;2022-12-18T03:32:03;46.05;;;30.60;;
52888;SDS011;41413;52.770;6.892;2022-12-18T03:34:34;47.97;;;28.75;;
52888;SDS011;41413;52.770;6.892;2022-12-18T03:37:03;45.47;;;31.65;;
52888;SDS011;41413;52.770;6.892;2022-12-18T03:39:31;50.30;;;29.90;;
52888;SDS011;41413;52.770;6.892;2022-12-18T03:42:07;47.28;;;27.95;;
52888;SDS011;41413;52.770;6.892;2022-12-18T03:45:08;37.47;;;28.55;;
52888;SDS011;41413;52.770;6.892;2022-12-18T03:47:56;49.95;;;32.05;;
52888;SDS011;41413;52.770;6.892;2022-12-18T03:53:14;46.97;;;29.67;;
52888;SDS011;41413;52.770;6.892;2022-12-18T03:55:55;43.92;;;27.45;;
52888;SDS011;41413;52.770;6.892;2022-12-18T03:58:24;39.70;;;24.80;;
52888;SDS011;41413;52.770;6.892;2022-12-18T04:00:52;46.40;;;26.02;;
52888;SDS011;41413;52.770;6.892;2022-12-18T04:03:22;41.47;;;26.95;;
52888;SDS011;41413;52.770;6.892;2022-12-18T04:05:52;44.95;;;27.45;;
52888;SDS011;41413;52.770;6.892;2022-12-18T04:08:21;49.58;;;26.42;;
52888;SDS011;41413;52.770;6.892;2022-12-18T04:10:48;44.65;;;29.10;;
52888;SDS011;41413;52.770;6.892;2022-12-18T04:13:21;38.35;;;25.42;;
52888;SDS011;41413;52.770;6.892;2022-12-18T04:15:55;41.17;;;23.58;;
52888;SDS011;41413;52.770;6.892;2022-12-18T04:18:22;42.42;;;24.67;;
52888;SDS011;41413;52.770;6.892;2022-12-18T04:20:49;35.80;;;23.00;;
52888;SDS011;41413;52.770;6.892;2022-12-18T04:23:15;53.78;;;28.77;;
52888;SDS011;41413;52.770;6.892;2022-12-18T04:25:42;37.88;;;25.60;;
52888;SDS011;41413;52.770;6.892;2022-12-18T04:28:09;40.95;;;25.73;;
52888;SDS011;41413;52.770;6.892;2022-12-18T04:30:35;44.78;;;25.30;;
52888;SDS011;41413;52.770;6.892;2022-12-18T04:33:02;45.40;;;25.10;;
52888;SDS011;41413;52.770;6.892;2022-12-18T04:35:29;41.42;;;25.30;;
52888;SDS011;41413;52.770;6.892;2022-12-18T04:37:56;47.03;;;27.88;;
52888;SDS011;41413;52.770;6.892;2022-12-18T04:40:22;35.63;;;23.55;;
52888;SDS011;41413;52.770;6.892;2022-12-18T04:42:49;39.83;;;23.95;;
52888;SDS011;41413;52.770;6.892;2022-12-18T04:45:16;40.45;;;23.85;;
52888;SDS011;41413;52.770;6.892;2022-12-18T04:47:43;31.40;;;21.60;;
52888;SDS011;41413;52.770;6.892;2022-12-18T04:50:10;37.90;;;21.30;;
52888;SDS011;41413;52.770;6.892;2022-12-18T04:52:36;39.47;;;24.38;;
52888;SDS011;41413;52.770;6.892;2022-12-18T04:55:03;30.88;;;20.98;;
52888;SDS011;41413;52.770;6.892;2022-12-18T04:57:30;31.17;;;19.85;;
52888;SDS011;41413;52.770;6.892;2022-12-18T04:59:57;31.20;;;24.17;;
52888;SDS011;41413;52.770;6.892;2022-12-18T05:02:23;31.90;;;22.83;;
52888;SDS011;41413;52.770;6.892;2022-12-18T05:04:50;35.42;;;22.90;;
52888;SDS011;41413;52.770;6.892;2022-12-18T05:07:17;30.35;;;22.92;;
52888;SDS011;41413;52.770;6.892;2022-12-18T05:09:44;36.17;;;23.25;;
52888;SDS011;41413;52.770;6.892;2022-12-18T05:12:10;33.85;;;23.33;;
52888;SDS011;41413;52.770;6.892;2022-12-18T05:14:37;40.75;;;26.08;;
52888;SDS011;41413;52.770;6.892;2022-12-18T05:17:03;42.05;;;24.67;;
52888;SDS011;41413;52.770;6.892;2022-12-18T05:19:30;34.78;;;23.85;;
52888;SDS011;41413;52.770;6.892;2022-12-18T05:21:57;36.72;;;23.00;;
52888;SDS011;41413;52.770;6.892;2022-12-18T05:24:24;36.92;;;22.05;;
52888;SDS011;41413;52.770;6.892;2022-12-18T05:26:50;29.88;;;22.38;;
52888;SDS011;41413;52.770;6.892;2022-12-18T05:29:17;40.70;;;25.55;;
52888;SDS011;41413;52.770;6.892;2022-12-18T05:31:44;36.88;;;23.80;;
52888;SDS011;41413;52.770;6.892;2022-12-18T05:34:10;36.45;;;24.67;;
52888;SDS011;41413;52.770;6.892;2022-12-18T05:36:38;37.35;;;23.20;;
52888;SDS011;41413;52.770;6.892;2022-12-18T05:39:04;36.75;;;22.42;;
52888;SDS011;41413;52.770;6.892;2022-12-18T05:41:32;33.00;;;23.75;;
52888;SDS011;41413;52.770;6.892;2022-12-18T05:43:58;35.50;;;22.90;;
52888;SDS011;41413;52.770;6.892;2022-12-18T05:46:25;36.58;;;22.58;;
52888;SDS011;41413;52.770;6.892;2022-12-18T05:48:52;36.85;;;24.75;;
52888;SDS011;41413;52.770;6.892;2022-12-18T05:51:19;36.35;;;24.58;;
52888;SDS011;41413;52.770;6.892;2022-12-18T05:53:47;35.17;;;24.55;;
52888;SDS011;41413;52.770;6.892;2022-12-18T05:56:16;32.28;;;23.38;;
52888;SDS011;41413;52.770;6.892;2022-12-18T05:58:45;30.60;;;21.25;;
52888;SDS011;41413;52.770;6.892;2022-12-18T06:01:16;30.63;;;21.80;;
52888;SDS011;41413;52.770;6.892;2022-12-18T06:03:45;38.80;;;22.42;;
52888;SDS011;41413;52.770;6.892;2022-12-18T06:06:22;29.67;;;22.33;;
52888;SDS011;41413;52.770;6.892;2022-12-18T06:08:51;37.38;;;22.13;;
52888;SDS011;41413;52.770;6.892;2022-12-18T06:11:20;30.27;;;21.15;;
52888;SDS011;41413;52.770;6.892;2022-12-18T06:13:49;26.92;;;20.88;;
52888;SDS011;41413;52.770;6.892;2022-12-18T06:16:23;28.25;;;20.27;;
52888;SDS011;41413;52.770;6.892;2022-12-18T06:18:50;34.47;;;22.33;;
52888;SDS011;41413;52.770;6.892;2022-12-18T06:21:16;30.58;;;22.38;;
52888;SDS011;41413;52.770;6.892;2022-12-18T06:23:43;35.58;;;22.67;;
52888;SDS011;41413;52.770;6.892;2022-12-18T06:26:11;30.40;;;20.92;;
52888;SDS011;41413;52.770;6.892;2022-12-18T06:28:38;29.83;;;22.73;;
52888;SDS011;41413;52.770;6.892;2022-12-18T06:31:05;33.05;;;19.67;;
52888;SDS011;41413;52.770;6.892;2022-12-18T06:33:32;31.92;;;19.17;;
52888;SDS011;41413;52.770;6.892;2022-12-18T06:36:10;28.52;;;20.35;;
52888;SDS011;41413;52.770;6.892;2022-12-18T06:38:39;31.35;;;20.73;;
52888;SDS011;41413;52.770;6.892;2022-12-18T06:41:08;29.67;;;21.30;;
52888;SDS011;41413;52.770;6.892;2022-12-18T06:43:36;27.70;;;20.45;;
52888;SDS011;41413;52.770;6.892;2022-12-18T06:46:04;31.42;;;21.75;;
52888;SDS011;41413;52.770;6.892;2022-12-18T06:48:31;30.77;;;20.58;;
52888;SDS011;41413;52.770;6.892;2022-12-18T06:50:58;24.27;;;19.55;;
52888;SDS011;41413;52.770;6.892;2022-12-18T06:53:25;27.55;;;18.45;;
52888;SDS011;41413;52.770;6.892;2022-12-18T06:55:52;24.58;;;19.45;;
52888;SDS011;41413;52.770;6.892;2022-12-18T06:58:31;29.02;;;20.30;;
52888;SDS011;41413;52.770;6.892;2022-12-18T07:00:59;32.47;;;18.60;;
52888;SDS011;41413;52.770;6.892;2022-12-18T07:03:27;27.45;;;18.60;;
52888;SDS011;41413;52.770;6.892;2022-12-18T07:05:54;37.05;;;22.45;;
52888;SDS011;41413;52.770;6.892;2022-12-18T07:08:21;28.70;;;20.38;;
52888;SDS011;41413;52.770;6.892;2022-12-18T07:10:48;32.45;;;18.45;;
52888;SDS011;41413;52.770;6.892;2022-12-18T07:13:21;29.75;;;19.00;;
52888;SDS011;41413;52.770;6.892;2022-12-18T07:15:48;28.63;;;19.65;;
52888;SDS011;41413;52.770;6.892;2022-12-18T07:18:14;38.42;;;20.05;;
52888;SDS011;41413;52.770;6.892;2022-12-18T07:20:41;27.08;;;20.40;;
52888;SDS011;41413;52.770;6.892;2022-12-18T07:23:08;26.25;;;19.20;;
52888;SDS011;41413;52.770;6.892;2022-12-18T07:25:35;27.40;;;18.33;;
52888;SDS011;41413;52.770;6.892;2022-12-18T07:28:03;30.13;;;18.80;;
52888;SDS011;41413;52.770;6.892;2022-12-18T07:30:31;24.88;;;18.25;;
52888;SDS011;41413;52.770;6.892;2022-12-18T07:32:57;26.00;;;18.67;;
52888;SDS011;41413;52.770;6.892;2022-12-18T07:35:24;26.10;;;17.33;;
52888;SDS011;41413;52.770;6.892;2022-12-18T07:37:51;25.00;;;16.73;;
52888;SDS011;41413;52.770;6.892;2022-12-18T07:40:17;26.90;;;16.77;;
52888;SDS011;41413;52.770;6.892;2022-12-18T07:42:44;22.42;;;15.88;;
52888;SDS011;41413;52.770;6.892;2022-12-18T07:45:11;24.25;;;17.33;;
52888;SDS011;41413;52.770;6.892;2022-12-18T07:47:38;21.35;;;16.17;;
52888;SDS011;41413;52.770;6.892;2022-12-18T07:50:04;18.58;;;15.13;;
52888;SDS011;41413;52.770;6.892;2022-12-18T07:52:32;22.08;;;14.68;;
52888;SDS011;41413;52.770;6.892;2022-12-18T07:54:59;19.27;;;14.50;;
52888;SDS011;41413;52.770;6.892;2022-12-18T07:57:25;22.00;;;14.02;;
52888;SDS011;41413;52.770;6.892;2022-12-18T08:00:12;27.40;;;15.52;;
52888;SDS011;41413;52.770;6.892;2022-12-18T08:02:39;22.02;;;16.92;;
52888;SDS011;41413;52.770;6.892;2022-12-18T08:05:07;24.02;;;15.02;;
52888;SDS011;41413;52.770;6.892;2022-12-18T08:07:34;23.23;;;15.85;;
52888;SDS011;41413;52.770;6.892;2022-12-18T08:10:01;19.80;;;15.32;;
52888;SDS011;41413;52.770;6.892;2022-12-18T08:12:29;18.13;;;13.10;;
52888;SDS011;41413;52.770;6.892;2022-12-18T08:14:55;19.60;;;14.05;;
52888;SDS011;41413;52.770;6.892;2022-12-18T08:17:22;18.77;;;13.95;;
52888;SDS011;41413;52.770;6.892;2022-12-18T08:19:49;17.52;;;13.45;;
52888;SDS011;41413;52.770;6.892;2022-12-18T08:22:16;19.30;;;13.52;;
52888;SDS011;41413;52.770;6.892;2022-12-18T08:24:42;23.02;;;14.55;;
52888;SDS011;41413;52.770;6.892;2022-12-18T08:27:09;16.60;;;12.63;;
52888;SDS011;41413;52.770;6.892;2022-12-18T08:29:55;17.50;;;13.68;;
52888;SDS011;41413;52.770;6.892;2022-12-18T08:32:22;19.33;;;11.82;;
52888;SDS011;41413;52.770;6.892;2022-12-18T08:34:49;18.65;;;13.20;;
52888;SDS011;41413;52.770;6.892;2022-12-18T08:37:15;21.83;;;11.25;;
52888;SDS011;41413;52.770;6.892;2022-12-18T08:39:42;17.65;;;11.10;;
52888;SDS011;41413;52.770;6.892;2022-12-18T08:42:09;20.77;;;12.60;;
52888;SDS011;41413;52.770;6.892;2022-12-18T08:44:54;14.27;;;11.73;;
52888;SDS011;41413;52.770;6.892;2022-12-18T08:47:21;14.85;;;9.95;;
52888;SDS011;41413;52.770;6.892;2022-12-18T08:49:48;12.82;;;10.73;;
52888;SDS011;41413;52.770;6.892;2022-12-18T08:52:14;12.55;;;9.77;;
52888;SDS011;41413;52.770;6.892;2022-12-18T08:54:41;14.82;;;10.82;;
52888;SDS011;41413;52.770;6.892;2022-12-18T08:57:08;11.98;;;10.32;;
52888;SDS011;41413;52.770;6.892;2022-12-18T08:59:34;18.73;;;11.23;;
52888;SDS011;41413;52.770;6.892;2022-12-18T09:02:01;14.50;;;11.32;;
52888;SDS011;41413;52.770;6.892;2022-12-18T09:04:28;11.77;;;10.38;;
52888;SDS011;41413;52.770;6.892;2022-12-18T09:06:54;13.15;;;9.30;;
52888;SDS011;41413;52.770;6.892;2022-12-18T09:09:21;15.52;;;10.23;;
52888;SDS011;41413;52.770;6.892;2022-12-18T09:11:48;11.55;;;8.23;;
52888;SDS011;41413;52.770;6.892;2022-12-18T09:14:15;12.68;;;9.60;;
52888;SDS011;41413;52.770;6.892;2022-12-18T09:16:41;12.48;;;9.07;;
52888;SDS011;41413;52.770;6.892;2022-12-18T09:19:12;12.93;;;9.02;;
52888;SDS011;41413;52.770;6.892;2022-12-18T09:21:39;13.70;;;8.77;;
52888;SDS011;41413;52.770;6.892;2022-12-18T09:24:13;14.90;;;9.27;;
52888;SDS011;41413;52.770;6.892;2022-12-18T09:26:40;11.93;;;9.35;;
52888;SDS011;41413;52.770;6.892;2022-12-18T09:29:12;13.20;;;8.75;;
52888;SDS011;41413;52.770;6.892;2022-12-18T09:31:39;10.18;;;8.13;;
52888;SDS011;41413;52.770;6.892;2022-12-18T09:34:06;9.05;;;7.60;;
52888;SDS011;41413;52.770;6.892;2022-12-18T09:36:33;13.18;;;7.75;;
52888;SDS011;41413;52.770;6.892;2022-12-18T09:39:00;9.35;;;7.35;;
52888;SDS011;41413;52.770;6.892;2022-12-18T09:41:44;8.88;;;7.63;;
52888;SDS011;41413;52.770;6.892;2022-12-18T09:44:21;11.75;;;8.73;;
52888;SDS011;41413;52.770;6.892;2022-12-18T09:49:48;9.32;;;6.50;;
52888;SDS011;41413;52.770;6.892;2022-12-18T09:55:03;12.68;;;8.30;;
52888;SDS011;41413;52.770;6.892;2022-12-18T09:57:32;13.07;;;7.82;;
52888;SDS011;41413;52.770;6.892;2022-12-18T10:00:04;11.20;;;8.63;;
52888;SDS011;41413;52.770;6.892;2022-12-18T10:02:41;11.20;;;6.93;;
52888;SDS011;41413;52.770;6.892;2022-12-18T10:05:16;10.13;;;8.02;;
52888;SDS011;41413;52.770;6.892;2022-12-18T10:08:00;9.27;;;8.05;;
52888;SDS011;41413;52.770;6.892;2022-12-18T10:10:34;10.60;;;8.27;;
52888;SDS011;41413;52.770;6.892;2022-12-18T10:13:15;11.45;;;8.35;;
52888;SDS011;41413;52.770;6.892;2022-12-18T10:16:02;9.68;;;8.02;;
52888;SDS011;41413;52.770;6.892;2022-12-18T10:21:26;9.02;;;7.40;;
52888;SDS011;41413;52.770;6.892;2022-12-18T10:26:27;9.45;;;7.90;;
52888;SDS011;41413;52.770;6.892;2022-12-18T10:28:54;10.55;;;8.43;;
52888;SDS011;41413;52.770;6.892;2022-12-18T10:31:30;12.52;;;7.78;;
52888;SDS011;41413;52.770;6.892;2022-12-18T10:33:57;8.57;;;7.40;;
52888;SDS011;41413;52.770;6.892;2022-12-18T10:36:24;11.75;;;7.53;;
52888;SDS011;41413;52.770;6.892;2022-12-18T10:38:51;9.70;;;7.20;;
52888;SDS011;41413;52.770;6.892;2022-12-18T10:46:44;8.10;;;7.03;;
52888;SDS011;41413;52.770;6.892;2022-12-18T10:51:48;9.00;;;6.80;;
52888;SDS011;41413;52.770;6.892;2022-12-18T10:54:17;8.85;;;6.50;;
52888;SDS011;41413;52.770;6.892;2022-12-18T10:56:47;9.23;;;7.30;;
52888;SDS011;41413;52.770;6.892;2022-12-18T10:59:15;10.98;;;8.15;;
52888;SDS011;41413;52.770;6.892;2022-12-18T11:01:53;9.20;;;7.72;;
52888;SDS011;41413;52.770;6.892;2022-12-18T11:04:25;10.80;;;7.82;;
52888;SDS011;41413;52.770;6.892;2022-12-18T11:06:57;10.50;;;8.10;;
52888;SDS011;41413;52.770;6.892;2022-12-18T11:12:00;9.98;;;7.07;;
52888;SDS011;41413;52.770;6.892;2022-12-18T11:14:47;11.02;;;8.15;;
52888;SDS011;41413;52.770;6.892;2022-12-18T11:17:30;9.77;;;7.63;;
52888;SDS011;41413;52.770;6.892;2022-12-18T11:20:01;11.20;;;8.02;;
52888;SDS011;41413;52.770;6.892;2022-12-18T11:22:32;10.75;;;7.45;;
52888;SDS011;41413;52.770;6.892;2022-12-18T11:25:02;7.28;;;6.38;;
52888;SDS011;41413;52.770;6.892;2022-12-18T11:28:02;8.13;;;6.65;;
52888;SDS011;41413;52.770;6.892;2022-12-18T11:30:32;9.38;;;8.13;;
52888;SDS011;41413;52.770;6.892;2022-12-18T11:33:10;9.32;;;7.72;;
52888;SDS011;41413;52.770;6.892;2022-12-18T11:35:58;11.20;;;7.25;;
52888;SDS011;41413;52.770;6.892;2022-12-18T11:38:30;7.78;;;6.50;;
52888;SDS011;41413;52.770;6.892;2022-12-18T11:41:12;13.48;;;7.20;;
52888;SDS011;41413;52.770;6.892;2022-12-18T11:44:17;9.98;;;7.47;;
52888;SDS011;41413;52.770;6.892;2022-12-18T11:47:01;7.60;;;6.35;;
52888;SDS011;41413;52.770;6.892;2022-12-18T11:49:35;12.63;;;7.57;;
52888;SDS011;41413;52.770;6.892;2022-12-18T11:52:04;9.05;;;6.80;;
52888;SDS011;41413;52.770;6.892;2022-12-18T11:54:53;9.02;;;7.15;;
52888;SDS011;41413;52.770;6.892;2022-12-18T12:00:15;9.55;;;7.88;;
52888;SDS011;41413;52.770;6.892;2022-12-18T12:05:51;6.85;;;6.15;;
52888;SDS011;41413;52.770;6.892;2022-12-18T12:08:49;8.60;;;7.20;;
52888;SDS011;41413;52.770;6.892;2022-12-18T12:17:08;8.63;;;7.53;;
52888;SDS011;41413;52.770;6.892;2022-12-18T12:20:06;11.13;;;7.80;;
52888;SDS011;41413;52.770;6.892;2022-12-18T12:31:20;11.05;;;8.40;;
52888;SDS011;41413;52.770;6.892;2022-12-18T12:34:14;8.27;;;6.60;;
52888;SDS011;41413;52.770;6.892;2022-12-18T12:37:11;9.65;;;7.88;;
52888;SDS011;41413;52.770;6.892;2022-12-18T12:40:01;8.70;;;7.43;;
52888;SDS011;41413;52.770;6.892;2022-12-18T12:42:55;9.93;;;6.87;;
52888;SDS011;41413;52.770;6.892;2022-12-18T12:45:47;9.68;;;7.93;;
52888;SDS011;41413;52.770;6.892;2022-12-18T12:51:06;9.23;;;8.18;;
52888;SDS011;41413;52.770;6.892;2022-12-18T12:53:56;13.40;;;7.47;;
52888;SDS011;41413;52.770;6.892;2022-12-18T12:56:27;13.85;;;9.10;;
52888;SDS011;41413;52.770;6.892;2022-12-18T13:04:50;9.52;;;7.85;;
52888;SDS011;41413;52.770;6.892;2022-12-18T13:07:40;10.60;;;8.55;;
52888;SDS011;41413;52.770;6.892;2022-12-18T13:18:18;10.95;;;8.23;;
52888;SDS011;41413;52.770;6.892;2022-12-18T13:23:33;9.30;;;7.68;;
52888;SDS011;41413;52.770;6.892;2022-12-18T13:31:14;11.50;;;7.57;;
52888;SDS011;41413;52.770;6.892;2022-12-18T13:34:16;13.77;;;9.18;;
52888;SDS011;41413;52.770;6.892;2022-12-18T13:36:55;10.57;;;7.85;;
52888;SDS011;41413;52.770;6.892;2022-12-18T13:39:42;11.90;;;8.50;;
52888;SDS011;41413;52.770;6.892;2022-12-18T13:44:56;10.45;;;9.15;;
52888;SDS011;41413;52.770;6.892;2022-12-18T13:47:26;10.13;;;8.30;;
52888;SDS011;41413;52.770;6.892;2022-12-18T13:49:59;12.18;;;8.10;;
52888;SDS011;41413;52.770;6.892;2022-12-18T13:52:28;14.32;;;8.95;;
52888;SDS011;41413;52.770;6.892;2022-12-18T13:55:02;13.20;;;8.27;;
52888;SDS011;41413;52.770;6.892;2022-12-18T13:57:32;9.45;;;7.65;;
52888;SDS011;41413;52.770;6.892;2022-12-18T14:00:23;10.93;;;9.63;;
52888;SDS011;41413;52.770;6.892;2022-12-18T14:02:55;13.65;;;9.13;;
52888;SDS011;41413;52.770;6.892;2022-12-18T14:05:28;10.60;;;9.32;;
52888;SDS011;41413;52.770;6.892;2022-12-18T14:08:01;14.13;;;8.98;;
52888;SDS011;41413;52.770;6.892;2022-12-18T14:10:39;11.85;;;8.60;;
52888;SDS011;41413;52.770;6.892;2022-12-18T14:13:21;8.93;;;7.90;;
52888;SDS011;41413;52.770;6.892;2022-12-18T14:16:00;11.43;;;8.88;;
52888;SDS011;41413;52.770;6.892;2022-12-18T14:21:00;9.35;;;7.88;;
52888;SDS011;41413;52.770;6.892;2022-12-18T14:23:39;10.98;;;8.93;;
52888;SDS011;41413;52.770;6.892;2022-12-18T14:29:27;9.52;;;8.63;;
52888;SDS011;41413;52.770;6.892;2022-12-18T14:34:30;10.35;;;9.13;;
52888;SDS011;41413;52.770;6.892;2022-12-18T14:36:57;10.20;;;8.57;;
52888;SDS011;41413;52.770;6.892;2022-12-18T14:39:24;12.00;;;8.98;;
52888;SDS011;41413;52.770;6.892;2022-12-18T14:41:52;12.18;;;9.43;;
52888;SDS011;41413;52.770;6.892;2022-12-18T14:44:19;19.75;;;12.98;;
52888;SDS011;41413;52.770;6.892;2022-12-18T14:46:47;10.40;;;8.60;;
52888;SDS011;41413;52.770;6.892;2022-12-18T14:49:29;15.25;;;10.00;;
52888;SDS011;41413;52.770;6.892;2022-12-18T14:52:04;12.90;;;9.77;;
52888;SDS011;41413;52.770;6.892;2022-12-18T14:54:33;11.38;;;9.35;;
52888;SDS011;41413;52.770;6.892;2022-12-18T14:57:16;13.15;;;8.77;;
52888;SDS011;41413;52.770;6.892;2022-12-18T14:59:49;10.57;;;8.73;;
52888;SDS011;41413;52.770;6.892;2022-12-18T15:02:25;13.55;;;9.90;;
52888;SDS011;41413;52.770;6.892;2022-12-18T15:05:00;11.05;;;9.23;;
52888;SDS011;41413;52.770;6.892;2022-12-18T15:07:41;13.63;;;9.88;;
52888;SDS011;41413;52.770;6.892;2022-12-18T15:10:12;10.68;;;9.18;;
52888;SDS011;41413;52.770;6.892;2022-12-18T15:12:41;15.52;;;10.38;;
52888;SDS011;41413;52.770;6.892;2022-12-18T15:20:43;12.02;;;10.40;;
52888;SDS011;41413;52.770;6.892;2022-12-18T15:25:42;11.35;;;9.13;;
52888;SDS011;41413;52.770;6.892;2022-12-18T15:33:44;12.85;;;10.00;;
52888;SDS011;41413;52.770;6.892;2022-12-18T15:36:19;13.85;;;9.73;;
52888;SDS011;41413;52.770;6.892;2022-12-18T15:38:53;14.02;;;10.40;;
52888;SDS011;41413;52.770;6.892;2022-12-18T15:41:34;12.60;;;10.95;;
52888;SDS011;41413;52.770;6.892;2022-12-18T15:44:03;14.13;;;10.82;;
52888;SDS011;41413;52.770;6.892;2022-12-18T15:46:47;13.27;;;10.32;;
52888;SDS011;41413;52.770;6.892;2022-12-18T15:49:14;12.02;;;9.57;;
52888;SDS011;41413;52.770;6.892;2022-12-18T15:51:40;11.63;;;9.80;;
52888;SDS011;41413;52.770;6.892;2022-12-18T15:54:09;13.05;;;9.93;;
52888;SDS011;41413;52.770;6.892;2022-12-18T15:56:39;11.45;;;9.07;;
52888;SDS011;41413;52.770;6.892;2022-12-18T15:59:24;10.00;;;8.55;;
52888;SDS011;41413;52.770;6.892;2022-12-18T16:01:52;13.63;;;9.52;;
52888;SDS011;41413;52.770;6.892;2022-12-18T16:04:20;12.25;;;8.93;;
52888;SDS011;41413;52.770;6.892;2022-12-18T16:06:48;17.85;;;10.75;;
52888;SDS011;41413;52.770;6.892;2022-12-18T16:09:35;12.60;;;10.27;;
52888;SDS011;41413;52.770;6.892;2022-12-18T16:12:02;15.52;;;11.13;;
52888;SDS011;41413;52.770;6.892;2022-12-18T16:14:30;12.75;;;9.85;;
52888;SDS011;41413;52.770;6.892;2022-12-18T16:16:59;13.32;;;10.18;;
52888;SDS011;41413;52.770;6.892;2022-12-18T16:19:27;13.30;;;9.73;;
52888;SDS011;41413;52.770;6.892;2022-12-18T16:21:55;11.95;;;9.55;;
52888;SDS011;41413;52.770;6.892;2022-12-18T16:24:24;11.77;;;8.38;;
52888;SDS011;41413;52.770;6.892;2022-12-18T16:26:53;11.07;;;9.07;;
52888;SDS011;41413;52.770;6.892;2022-12-18T16:29:20;12.65;;;10.05;;
52888;SDS011;41413;52.770;6.892;2022-12-18T16:31:51;13.82;;;10.82;;
52888;SDS011;41413;52.770;6.892;2022-12-18T16:36:52;13.93;;;9.32;;
52888;SDS011;41413;52.770;6.892;2022-12-18T16:39:24;12.18;;;9.88;;
52888;SDS011;41413;52.770;6.892;2022-12-18T16:41:52;15.95;;;9.88;;
52888;SDS011;41413;52.770;6.892;2022-12-18T16:44:19;11.35;;;9.73;;
52888;SDS011;41413;52.770;6.892;2022-12-18T16:46:47;16.00;;;9.38;;
52888;SDS011;41413;52.770;6.892;2022-12-18T16:49:14;13.57;;;11.02;;
52888;SDS011;41413;52.770;6.892;2022-12-18T16:51:43;12.43;;;9.68;;
52888;SDS011;41413;52.770;6.892;2022-12-18T16:54:11;11.38;;;10.07;;
52888;SDS011;41413;52.770;6.892;2022-12-18T16:56:44;11.45;;;9.20;;
52888;SDS011;41413;52.770;6.892;2022-12-18T16:59:12;9.77;;;8.60;;
52888;SDS011;41413;52.770;6.892;2022-12-18T17:01:39;14.23;;;9.57;;
52888;SDS011;41413;52.770;6.892;2022-12-18T17:04:07;12.55;;;10.13;;